D/T METAR WX W/SPE G/SPE TEMP DEWP FEEL
31/01/23 04:20 EGPO 310420Z AUTO 26020KT 9999 FEW003/// SCT033/// 03/00 Q1005 23.0mph 3°C 0°C 0.8°C
30/01/23 22:20 EGPO 302220Z AUTO 25019KT 9999 BKN026/// 09/07 Q1007 21.9mph 9°C 7°C 9.0°C
30/01/23 13:20 EGPO 301320Z 24007KT 9999 FEW015 SCT035 07/04 Q1017 8.1mph 7°C 4°C 6.0°C
30/01/23 12:20 EGPO 301220Z 23005KT 9999 FEW020 07/04 Q1018 5.8mph 7°C 4°C 6.0°C
30/01/23 11:20 EGPO 301120Z 25006KT 9999 VCSH FEW015 SCT023 06/04 Q1019 VCSH 6.9mph 6°C 4°C 5.0°C
30/01/23 10:50 EGPO 301050Z 23002KT 9999 VCSH FEW015 SCT039 05/04 Q1019 VCSH 2.3mph 5°C 4°C 4.0°C
30/01/23 10:20 EGPO 301020Z 22002KT 9999 VCSH FEW020 05/03 Q1018 VCSH 2.3mph 5°C 3°C 3.7°C
30/01/23 08:20 EGPO 300820Z 24001KT 9999 FEW032 03/M00 Q1017 1.2mph 3°C 0°C 0.8°C
30/01/23 06:50 EGPO 300650Z 31009KT 9999 FEW034 04/01 Q1016 10.4mph 4°C 1°C 2.1°C
09/01/23 06:20 EGPO 090620Z 22006KT 9999 VCSH FEW019 SCT030 05/03 Q0981 VCSH 6.9mph 5°C 3°C 3.7°C
09/01/23 05:50 EGPO 090550Z AUTO 24016KT 9999 SCT028/// BKN036/// BKN047/// 06/03 Q0981 18.4mph 6°C 3°C 4.7°C
09/01/23 04:50 EGPO 090450Z AUTO 21005KT 9999 SCT027/// 03/02 Q0980 5.8mph 3°C 2°C 1.4°C
09/01/23 04:20 EGPO 090420Z AUTO 24010KT 9999 FEW025/// SCT030/// 05/03 Q0980 11.5mph 5°C 3°C 3.7°C
09/01/23 03:50 EGPO 090350Z AUTO 24011KT 9999 SCT028/// SCT044/// 05/03 Q0979 12.7mph 5°C 3°C 3.7°C
09/01/23 03:20 EGPO 090320Z AUTO 24011KT 9999 FEW027/// SCT038/// BKN048/// 05/03 Q0979 12.7mph 5°C 3°C 3.7°C
09/01/23 02:50 EGPO 090250Z AUTO 22005KT 9999 FEW023/// 04/03 Q0979 5.8mph 4°C 3°C 2.7°C
09/01/23 01:50 EGPO 090150Z AUTO 22006KT 9999 FEW025/// SCT032/// 04/03 Q0978 6.9mph 4°C 3°C 2.7°C
09/01/23 00:50 EGPO 090050Z AUTO 22007KT 9999 FEW027/// SCT046/// 04/02 Q0977 8.1mph 4°C 2°C 2.4°C
09/01/23 00:20 EGPO 090020Z AUTO 24009KT 9999 FEW035/// 04/02 Q0977 10.4mph 4°C 2°C 2.4°C
08/01/23 23:50 EGPO 082350Z AUTO 25012KT 9999 NCD 05/02 Q0976 13.8mph 5°C 2°C 3.4°C
08/01/23 22:50 EGPO 082250Z AUTO 26007KT 9999 -RA SCT023/// BKN032/// BKN042/// 05/03 Q0976 -RA 8.1mph 5°C 3°C 3.7°C
08/01/23 22:20 EGPO 082220Z AUTO 24011KT 9999 FEW023/// SCT032/// BKN045/// 05/03 Q0975 RERA 12.7mph 5°C 3°C 3.7°C
08/01/23 20:50 EGPO 082050Z 22004KT 9999 VCSH FEW014CB FEW030 05/04 Q0974 VCSH 4.6mph 5°C 4°C 4.0°C
08/01/23 19:50 EGPO 081950Z 21002KT 9999 -SHRA FEW014CB BKN028 05/04 Q0974 -SHRA 2.3mph 5°C 4°C 4.0°C
08/01/23 19:20 EGPO 081920Z 21006KT 9999 VCSH FEW014CB SCT030 05/04 Q0973 VCSH 6.9mph 5°C 4°C 4.0°C
08/01/23 18:20 EGPO 081820Z 22005KT 9999 VCSH FEW014CB SCT023 06/04 Q0972 VCSH 5.8mph 6°C 4°C 5.0°C
08/01/23 17:50 EGPO 081750Z 21010KT 9999 VCSH FEW014CB SCT025 06/04 Q0972 VCSH 11.5mph 6°C 4°C 5.0°C
08/01/23 17:20 EGPO 081720Z 21012KT 9999 VCSH FEW014CB SCT025 06/04 Q0971 VCSH 13.8mph 6°C 4°C 5.0°C
08/01/23 16:50 EGPO 081650Z 20014KT 9999 VCSH SCT014CB SCT028 07/04 Q0971 VCSH 16.1mph 7°C 4°C 6.0°C
08/01/23 16:20 EGPO 081620Z 20015KT 9999 VCSH FEW014CB SCT020 07/05 Q0971 VCSH 17.3mph 7°C 5°C 6.3°C
08/01/23 15:50 EGPO 081550Z 20014KT 9999 VCSH FEW014CB SCT020 07/05 Q0970 VCSH 16.1mph 7°C 5°C 6.3°C
08/01/23 15:20 EGPO 081520Z 22011KT 9999 -RA FEW009 FEW014CB BKN016 07/06 Q0970 -RA 12.7mph 7°C 6°C 6.6°C
08/01/23 14:20 EGPO 081420Z 19020G30KT 9999 -RA BKN009 FEW014CB BKN016 07/06 Q0970 -RA 23.0mph 34.5mph 7°C 6°C 6.6°C
08/01/23 13:50 EGPO 081350Z 19028KT 9999 -RA BKN009 FEW014CB BKN019 07/06 Q0969 -RA 32.2mph 7°C 6°C 6.6°C
08/01/23 13:20 EGPO 081320Z 20029KT 4000 +RA SCT007 BKN012 FEW014CB 07/06 Q0969 +RA 33.4mph 7°C 6°C 6.6°C
08/01/23 12:50 EGPO 081250Z 19030KT 9999 -RA SCT012 FEW014CB BKN018 07/05 Q0969 RERA -RA 34.5mph 7°C 5°C 6.3°C
08/01/23 12:20 EGPO 081220Z 20025G40KT 7000 RA FEW006 BKN011 FEW014CB 06/05 Q0969 RA 28.8mph 46.0mph 6°C 5°C 5.3°C
08/01/23 11:50 EGPO 081150Z 20027KT 9999 -RA FEW008 SCT012 FEW015CB BKN020 07/06 Q0968 -RA 31.1mph 7°C 6°C 6.6°C
08/01/23 11:20 EGPO 081120Z 20029G42KT 9999 -RA FEW008 BKN012 07/05 Q0968 -RA 33.4mph 48.3mph 7°C 5°C 6.3°C
08/01/23 10:50 EGPO 081050Z AUTO 20035KT 7000 -RA SCT013/// BKN020/// BKN026/// 07/05 Q0967 RERA -RA 40.3mph 7°C 5°C 6.3°C
08/01/23 10:20 EGPO 081020Z AUTO 19045G58KT 9999 -RA FEW013/// SCT022/// BKN027/// 07/05 Q0965 RERA -RA 51.8mph 66.7mph 7°C 5°C 6.3°C
08/01/23 09:50 EGPO 080950Z AUTO 19047G60KT 1700 +RA FEW002/// BKN011/// OVC019/// 06/05 Q0965 +RA 54.1mph 69.0mph 6°C 5°C 5.3°C
08/01/23 09:20 EGPO 080920Z AUTO 19045G59KT 2400 RA FEW002/// BKN012/// OVC031/// 06/05 Q0965 RERA RA 51.8mph 67.9mph 6°C 5°C 5.3°C
08/01/23 08:50 EGPO 080850Z AUTO 18042G53KT 2200 RA FEW001/// BKN012/// BKN017/// 06/05 Q0965 RERA RA 48.3mph 61.0mph 6°C 5°C 5.3°C
08/01/23 08:20 EGPO 080820Z AUTO 18037G50KT 1100 +RA SCT011/// BKN017/// OVC024/// 06/05 Q0965 RESHGR +RA 42.6mph 57.5mph 6°C 5°C 5.3°C
08/01/23 07:50 EGPO 080750Z AUTO 19040G50KT 5000 -RA BKN012/// OVC027/// 06/04 Q0966 RERA -RA 46.0mph 57.5mph 6°C 4°C 5.0°C
08/01/23 07:20 EGPO 080720Z AUTO 18035G47KT 9999 BKN018/// BKN031/// 06/04 Q0967 RESHGR 40.3mph 54.1mph 6°C 4°C 5.0°C
08/01/23 06:50 EGPO 080650Z AUTO 19034G45KT 4300 -RA BKN017/// OVC039/// 06/04 Q0967 RERA -RA 39.1mph 51.8mph 6°C 4°C 5.0°C
08/01/23 06:20 EGPO 080620Z AUTO 20035KT 4000 RA BKN019/// OVC025/// 06/03 Q0967 RERA RA 40.3mph 6°C 3°C 4.7°C
08/01/23 05:50 EGPO 080550Z AUTO 19032G45KT 9999 -RA SCT024/// BKN041/// 07/03 Q0968 -RA 36.8mph 51.8mph 7°C 3°C 5.7°C
08/01/23 05:20 EGPO 080520Z AUTO 20028G38KT 1600 -RA FEW001/// BKN017/// BKN022/// 05/03 Q0968 RERA -RA 32.2mph 43.7mph 5°C 3°C 3.7°C
08/01/23 04:50 EGPO 080450Z AUTO 20026G36KT 180V250 9999 SCT036/// BKN046/// 08/03 Q0968 29.9mph 41.4mph 8°C 3°C 6.7°C
08/01/23 04:20 EGPO 080420Z AUTO 20028G38KT 9999 SCT036/// 08/03 Q0968 32.2mph 43.7mph 8°C 3°C 6.7°C
08/01/23 03:50 EGPO 080350Z AUTO 19025KT 9999 SCT028/// BKN042/// 08/05 Q0969 28.8mph 8°C 5°C 7.3°C
08/01/23 03:20 EGPO 080320Z AUTO 20022G32KT 9999 SCT029/// BKN047/// 07/04 Q0968 25.3mph 36.8mph 7°C 4°C 6.0°C
08/01/23 02:50 EGPO 080250Z AUTO 20026G41KT 6000 -RA SCT023/// BKN029/// BKN037/// 08/04 Q0968 -RA 29.9mph 47.2mph 8°C 4°C 7.0°C
08/01/23 02:20 EGPO 080220Z AUTO 19025G36KT 9999 -RA SCT021/// BKN031/// BKN037/// 08/05 Q0968 -RA 28.8mph 41.4mph 8°C 5°C 7.3°C
08/01/23 01:50 EGPO 080150Z AUTO 19021KT 9999 SCT028/// BKN038/// BKN047/// 08/05 Q0968 24.2mph 8°C 5°C 7.3°C
08/01/23 01:20 EGPO 080120Z AUTO 19024KT 9999 FEW024/// BKN039/// 08/05 Q0968 27.6mph 8°C 5°C 7.3°C
08/01/23 00:20 EGPO 080020Z AUTO 19029G45KT 3100 SHGR BKN021/// OVC028/// 07/05 Q0968 RERA SHGR 33.4mph 51.8mph 7°C 5°C 6.3°C
07/01/23 23:50 EGPO 072350Z AUTO 18034G50KT 1800 +RA SCT019/// BKN025/// OVC030/// 07/06 Q0968 RESHGR +RA 39.1mph 57.5mph 7°C 6°C 6.6°C
07/01/23 23:20 EGPO 072320Z AUTO 17025KT 8000 -RA SCT018/// BKN026/// OVC030/// 08/06 Q0968 -RA 28.8mph 8°C 6°C 7.6°C
07/01/23 22:50 EGPO 072250Z AUTO 17029KT 9999 FEW016/// BKN021/// OVC027/// 08/06 Q0969 33.4mph 8°C 6°C 7.6°C
07/01/23 22:20 EGPO 072220Z AUTO 16031G42KT 6000 -RA BKN022/// OVC030/// 08/05 Q0969 RERA -RA 35.7mph 48.3mph 8°C 5°C 7.3°C
07/01/23 21:50 EGPO 072150Z AUTO 16030G41KT 6000 -RA FEW002/// BKN023/// OVC033/// 08/06 Q0969 RERA -RA 34.5mph 47.2mph 8°C 6°C 7.6°C
07/01/23 21:20 EGPO 072120Z AUTO 16029KT 3800 -RA BKN017/// BKN025/// OVC035/// 07/05 Q0970 RERA -RA 33.4mph 7°C 5°C 6.3°C
07/01/23 20:50 EGPO 072050Z AUTO 15021KT 9999 -RA BKN019/// BKN026/// OVC040/// 07/04 Q0970 -RA 24.2mph 7°C 4°C 6.0°C
07/01/23 20:20 EGPO 072020Z AUTO 15022KT 9999 BKN018/// BKN029/// OVC039/// 07/04 Q0971 25.3mph 7°C 4°C 6.0°C
07/01/23 19:50 EGPO 071950Z AUTO 16026KT 9999 -RA SCT021/// SCT025/// BKN046/// 08/04 Q0972 -RA 29.9mph 8°C 4°C 7.0°C
07/01/23 19:20 EGPO 071920Z AUTO 16022G34KT 9999 FEW026/// BKN041/// 08/04 Q0972 25.3mph 39.1mph 8°C 4°C 7.0°C
07/01/23 18:50 EGPO 071850Z AUTO 16021KT 9999 FEW024/// SCT030/// BKN043/// 08/03 Q0973 24.2mph 8°C 3°C 6.7°C
07/01/23 18:20 EGPO 071820Z AUTO 15017KT 9999 FEW023/// 07/04 Q0974 19.6mph 7°C 4°C 6.0°C
07/01/23 17:50 EGPO 071750Z AUTO 15018KT 9999 FEW023/// BKN048/// 07/04 Q0974 20.7mph 7°C 4°C 6.0°C
07/01/23 17:20 EGPO 071720Z AUTO 17021KT 9999 FEW019/// SCT029/// BKN034/// 07/04 Q0975 24.2mph 7°C 4°C 6.0°C
07/01/23 16:50 EGPO 071650Z AUTO 16019KT 9999 -RA BKN023/// OVC035/// 07/04 Q0976 -RA 21.9mph 7°C 4°C 6.0°C
07/01/23 16:20 EGPO 071620Z AUTO 16015KT 9999 -RA SCT029/// BKN042/// 08/04 Q0976 -RA 17.3mph 8°C 4°C 7.0°C
07/01/23 15:50 EGPO 071550Z AUTO 16015KT 9999 SCT033/// 08/03 Q0976 17.3mph 8°C 3°C 6.7°C
07/01/23 15:20 EGPO 071520Z AUTO 17019KT 9999 BKN025/// 08/04 Q0977 21.9mph 8°C 4°C 7.0°C
07/01/23 14:50 EGPO 071450Z 17018KT 9999 FEW016 08/03 Q0978 20.7mph 8°C 3°C 6.7°C
07/01/23 14:20 EGPO 071420Z 17017KT 9999 FEW016 07/03 Q0978 19.6mph 7°C 3°C 5.7°C
07/01/23 13:50 EGPO 071350Z 16018KT 9999 FEW016 08/03 Q0979 20.7mph 8°C 3°C 6.7°C
07/01/23 13:20 EGPO 071320Z 17014KT 9999 FEW016 08/04 Q0980 16.1mph 8°C 4°C 7.0°C
07/01/23 12:20 EGPO 071220Z 15011KT 9999 FEW014 SCT036 07/05 Q0981 12.7mph 7°C 5°C 6.3°C
07/01/23 11:50 EGPO 071150Z 16013KT 9999 FEW019 SCT038 07/04 Q0982 15.0mph 7°C 4°C 6.0°C
07/01/23 11:20 EGPO 071120Z 17009KT 9999 FEW020 07/03 Q0982 10.4mph 7°C 3°C 5.7°C
07/01/23 10:50 EGPO 071050Z 17008KT 9999 FEW020 06/04 Q0982 9.2mph 6°C 4°C 5.0°C
07/01/23 10:20 EGPO 071020Z VRB01KT 9999 FEW020 03/03 Q0983 1.2mph 3°C 3°C 1.7°C
07/01/23 09:50 EGPO 070950Z VRB01KT 9999 FEW020 BKN029 02/01 Q0983 1.2mph 2°C 1°C 0.1°C
07/01/23 09:20 EGPO 070920Z VRB01KT 9999 FEW020 SCT040 01/00 Q0984 1.2mph 1°C 0°C -1.2°C
07/01/23 08:50 EGPO 070850Z 19001KT 9999 FEW035 02/02 Q0984 1.2mph 2°C 2°C 0.4°C
07/01/23 08:20 EGPO 070820Z VRB01KT 9999 FEW030 02/01 Q0984 1.2mph 2°C 1°C 0.1°C
07/01/23 07:50 EGPO 070750Z 20002KT 9999 FEW034 02/01 Q0984 2.3mph 2°C 1°C 0.1°C
07/01/23 07:20 EGPO 070720Z 22001KT 9999 FEW018 SCT038 04/03 Q0985 1.2mph 4°C 3°C 2.7°C
07/01/23 06:50 EGPO 070650Z 20004KT 9999 FEW017 SCT036 05/04 Q0985 4.6mph 5°C 4°C 4.0°C
07/01/23 06:20 EGPO 070620Z 19004KT 9999 FEW017 SCT030 BKN046 06/05 Q0985 4.6mph 6°C 5°C 5.3°C
07/01/23 05:50 EGPO 070550Z 20002KT 9999 -RA FEW017 BKN030 07/05 Q0985 -RA 2.3mph 7°C 5°C 6.3°C